createdAt,value
2019-01-18T00:04:00.294Z,8.83
2019-01-18T00:08:01.127Z,6.97
2019-01-18T00:12:21.933Z,9.63
2019-01-18T00:16:23.171Z,7.07
2019-01-18T00:20:44.023Z,6.83
2019-01-18T00:25:05.976Z,12.50
2019-01-18T00:29:29.662Z,13.67
2019-01-18T00:33:49.337Z,8.23
2019-01-18T00:38:10.078Z,10.53
2019-01-18T00:42:30.923Z,9.13
2019-01-18T00:46:51.653Z,9.87
2019-01-18T00:51:12.398Z,9.13
2019-01-18T00:55:13.467Z,10.23
2019-01-18T00:59:14.366Z,10.77
2019-01-18T01:03:15.325Z,8.70
2019-01-18T01:07:16.303Z,11.00
2019-01-18T01:11:58.836Z,11.70
2019-01-18T01:16:19.573Z,12.63
2019-01-18T01:20:40.416Z,11.17
2019-01-18T01:25:01.253Z,10.80
2019-01-18T01:29:21.988Z,11.00
2019-01-18T01:33:42.734Z,10.17
2019-01-18T01:38:03.698Z,14.13
2019-01-18T01:42:24.396Z,14.43
2019-01-18T01:46:45.246Z,11.70
2019-01-18T01:51:06.091Z,10.40
2019-01-18T01:55:20.066Z,9.80
2019-01-18T01:59:34.358Z,11.70
2019-01-18T02:03:35.221Z,12.93
2019-01-18T02:07:56.056Z,12.57
2019-01-18T02:12:16.802Z,13.03
2019-01-18T02:16:17.792Z,14.17
2019-01-18T02:20:38.628Z,9.07
2019-01-18T02:24:39.619Z,9.77
2019-01-18T02:29:00.332Z,10.40
2019-01-18T02:33:21.176Z,11.30
2019-01-18T02:37:42.017Z,14.10
2019-01-18T02:41:56.457Z,9.23
2019-01-18T02:45:57.336Z,7.97
2019-01-18T02:50:18.187Z,10.00
2019-01-18T02:54:39.021Z,9.80
2019-01-18T02:58:59.749Z,7.50
2019-01-18T03:03:20.475Z,7.47
2019-01-18T03:07:41.211Z,9.03
2019-01-18T03:12:01.952Z,9.03
2019-01-18T03:16:22.724Z,7.73
2019-01-18T03:20:23.752Z,8.93
2019-01-18T03:24:44.562Z,11.20
2019-01-18T03:29:05.310Z,10.33
2019-01-18T03:33:26.157Z,12.40
2019-01-18T03:37:47.075Z,12.03
2019-01-18T03:42:01.505Z,10.90
2019-01-18T03:46:02.905Z,10.57
2019-01-18T03:50:24.045Z,14.73
2019-01-18T03:54:38.466Z,13.03
2019-01-18T03:58:53.035Z,14.67
2019-01-18T04:03:06.990Z,14.57
2019-01-18T04:07:07.871Z,11.77
2019-01-18T04:11:28.614Z,16.37
2019-01-18T04:15:49.427Z,12.50
2019-01-18T04:20:11.479Z,11.40
2019-01-18T04:24:12.334Z,12.20
2019-01-18T04:28:33.186Z,15.30
2019-01-18T04:32:53.926Z,19.43
2019-01-18T04:37:14.668Z,14.50
2019-01-18T04:41:35.399Z,17.93
2019-01-18T04:45:36.315Z,11.33
2019-01-18T04:49:37.217Z,11.83
2019-01-18T04:53:57.971Z,13.03
2019-01-18T04:58:18.721Z,15.13
2019-01-18T05:02:39.581Z,12.60
2019-01-18T05:07:00.429Z,12.67
2019-01-18T05:11:21.140Z,12.40
2019-01-18T05:15:41.959Z,15.40
2019-01-18T05:20:04.025Z,13.93
2019-01-18T05:24:24.774Z,15.67
2019-01-18T05:28:46.609Z,13.73
2019-01-18T05:33:08.207Z,18.20
2019-01-18T05:37:09.068Z,14.87
2019-01-18T05:41:09.954Z,17.10
2019-01-18T05:45:30.702Z,14.43
2019-01-18T05:49:51.440Z,15.37
2019-01-18T05:53:52.344Z,16.63
2019-01-18T05:58:06.418Z,15.00
2019-01-18T06:02:21.327Z,23.00
2019-01-18T06:06:35.766Z,17.60
2019-01-18T06:10:50.193Z,19.90
2019-01-18T06:15:04.144Z,20.03
2019-01-18T06:19:18.771Z,24.23
2019-01-18T06:23:33.551Z,28.30
2019-01-18T06:27:50.584Z,31.27
2019-01-18T06:32:05.005Z,27.37
2019-01-18T06:36:19.408Z,16.33
2019-01-18T06:40:33.184Z,21.27
2019-01-18T06:44:47.069Z,18.10
2019-01-18T06:49:02.106Z,17.67
2019-01-18T06:53:16.255Z,18.77
2019-01-18T06:57:30.848Z,18.30
2019-01-18T07:01:45.319Z,16.53
2019-01-18T07:05:59.735Z,18.70
2019-01-18T07:10:20.457Z,23.23
2019-01-18T07:14:30.491Z,24.03
2019-01-18T07:18:44.957Z,21.90
2019-01-18T07:22:59.682Z,29.37
2019-01-18T07:27:14.438Z,24.83
2019-01-18T07:31:28.859Z,21.00
2019-01-18T07:35:43.367Z,30.37
2019-01-18T07:39:58.014Z,33.97
2019-01-18T07:44:12.450Z,26.23
2019-01-18T07:48:27.133Z,35.80
2019-01-18T07:52:41.587Z,20.63
2019-01-18T07:56:55.447Z,24.73
2019-01-18T08:01:10.223Z,24.40
2019-01-18T08:05:24.186Z,33.47
2019-01-18T08:09:38.639Z,25.87
2019-01-18T08:13:53.360Z,27.67
2019-01-18T08:18:07.950Z,28.43
2019-01-18T08:22:22.224Z,27.80
2019-01-18T08:26:23.108Z,29.60
2019-01-18T08:30:43.991Z,22.70
2019-01-18T08:35:05.709Z,25.57
2019-01-18T08:39:26.433Z,21.30
2019-01-18T08:43:47.188Z,17.80
2019-01-18T08:48:08.046Z,16.40
2019-01-18T08:52:28.796Z,20.07
2019-01-18T08:56:42.844Z,18.93
2019-01-18T09:00:56.784Z,20.40
2019-01-18T09:05:11.202Z,21.17
2019-01-18T09:09:25.655Z,18.30
2019-01-18T09:13:40.292Z,16.70
2019-01-18T09:17:41.199Z,18.93
2019-01-18T09:22:01.963Z,15.67
2019-01-18T09:26:22.831Z,15.27
2019-01-18T09:30:43.684Z,17.60
2019-01-18T09:35:26.279Z,15.10
2019-01-18T09:39:47.103Z,16.23
2019-01-18T09:44:07.864Z,12.63
2019-01-18T09:48:08.939Z,16.00
2019-01-18T09:52:29.718Z,14.50
2019-01-18T09:56:43.491Z,11.37
2019-01-18T10:00:58.106Z,12.47
2019-01-18T10:05:12.083Z,11.93
2019-01-18T10:09:25.903Z,13.80
2019-01-18T10:13:40.512Z,11.87
2019-01-18T10:18:00.630Z,11.53
2019-01-18T10:22:11.809Z,11.70
2019-01-18T10:26:26.397Z,10.47
2019-01-18T10:30:40.950Z,12.83
2019-01-18T10:34:55.383Z,39.87
2019-01-18T10:38:56.303Z,8.97
2019-01-18T10:43:17.068Z,11.93
2019-01-18T10:47:38.021Z,9.47
2019-01-18T10:51:58.864Z,10.57
2019-01-18T10:56:12.833Z,8.80
2019-01-18T11:00:27.597Z,9.47
2019-01-18T11:04:42.195Z,15.40
2019-01-18T11:08:56.909Z,14.03
2019-01-18T11:13:11.634Z,19.37
2019-01-18T11:17:25.892Z,14.57
2019-01-18T11:21:40.951Z,7.37
2019-01-18T11:25:55.665Z,9.83
2019-01-18T11:29:56.667Z,7.30
2019-01-18T11:34:17.431Z,10.07
2019-01-18T11:38:38.316Z,7.23
2019-01-18T11:42:59.237Z,5.30
2019-01-18T11:47:20.071Z,7.67
2019-01-18T11:51:40.843Z,6.47
2019-01-18T11:55:41.862Z,7.30
2019-01-18T12:00:24.418Z,8.73
2019-01-18T12:04:45.196Z,6.37
2019-01-18T12:09:06.117Z,5.90
2019-01-18T12:13:26.965Z,8.33
2019-01-18T12:17:47.799Z,9.03
2019-01-18T12:22:08.637Z,7.00
2019-01-18T12:26:29.396Z,6.50
2019-01-18T12:30:50.236Z,6.87
2019-01-18T12:35:10.946Z,8.93
2019-01-18T12:39:31.675Z,5.60
2019-01-18T12:43:52.641Z,6.03
2019-01-18T12:48:13.502Z,7.90
2019-01-18T12:52:34.560Z,7.03
2019-01-18T12:56:49.007Z,5.77
2019-01-18T13:01:03.231Z,5.83
2019-01-18T13:05:20.326Z,6.33
2019-01-18T13:09:34.968Z,5.00
2019-01-18T13:13:49.739Z,8.53
2019-01-18T13:18:04.479Z,7.87
2019-01-18T13:22:19.003Z,5.40
2019-01-18T13:26:32.841Z,8.63
2019-01-18T13:30:33.848Z,4.97
2019-01-18T13:34:55.503Z,5.80
2019-01-18T13:39:16.240Z,8.87
2019-01-18T13:43:37.160Z,5.87
2019-01-18T13:47:57.997Z,5.27
2019-01-18T13:52:18.916Z,7.93
2019-01-18T13:56:32.951Z,6.70
2019-01-18T14:00:47.431Z,6.07
2019-01-18T14:05:01.988Z,8.70
2019-01-18T14:09:16.157Z,6.43
2019-01-18T14:13:17.240Z,6.97
2019-01-18T14:17:38.244Z,8.47
2019-01-18T14:21:39.226Z,11.03
2019-01-18T14:26:00.075Z,8.33
2019-01-18T14:30:21.903Z,9.47
2019-01-18T14:34:42.710Z,8.00
2019-01-18T14:39:25.287Z,8.43
2019-01-18T14:43:46.226Z,9.27
2019-01-18T14:48:06.965Z,13.50
2019-01-18T14:52:27.715Z,9.00
2019-01-18T14:56:41.831Z,10.57
2019-01-18T15:00:56.368Z,9.70
2019-01-18T15:04:57.369Z,13.97
2019-01-18T15:09:18.226Z,13.53
2019-01-18T15:13:19.315Z,7.50
2019-01-18T15:17:40.205Z,6.70
2019-01-18T15:21:41.621Z,5.70
2019-01-18T15:26:02.565Z,7.30
2019-01-18T15:30:45.085Z,18.80
2019-01-18T15:35:27.586Z,7.17
2019-01-18T15:39:48.439Z,20.23
2019-01-18T15:44:09.190Z,13.97
2019-01-18T15:48:10.074Z,17.80
2019-01-18T15:52:30.904Z,11.17
2019-01-18T15:56:45.429Z,25.87
2019-01-18T16:01:00.034Z,36.63
2019-01-18T16:05:14.609Z,19.27
2019-01-18T16:09:29.025Z,20.53
2019-01-18T16:13:44.146Z,12.73
2019-01-18T16:17:53.044Z,15.63
2019-01-18T16:22:13.985Z,12.47
2019-01-18T16:26:14.873Z,10.33
2019-01-18T16:30:35.654Z,13.10
2019-01-18T16:34:56.580Z,12.77
2019-01-18T16:38:57.455Z,20.33
2019-01-18T16:43:12.244Z,12.50
2019-01-18T16:47:26.925Z,10.13
2019-01-18T16:51:41.473Z,10.13
2019-01-18T16:55:56.044Z,11.50
2019-01-18T17:00:10.597Z,14.73
2019-01-18T17:04:25.025Z,16.40
2019-01-18T17:08:39.740Z,11.80
2019-01-18T17:12:54.255Z,14.63
2019-01-18T17:17:08.824Z,20.90
2019-01-18T17:21:09.825Z,15.47
2019-01-18T17:25:30.739Z,15.90
2019-01-18T17:29:32.764Z,21.20
2019-01-18T17:33:53.622Z,17.53
2019-01-18T17:38:36.144Z,17.40
2019-01-18T17:42:58.822Z,16.47
2019-01-18T17:47:39.487Z,19.37
2019-01-18T17:52:21.998Z,15.13
2019-01-18T17:56:36.028Z,23.40
2019-01-18T18:01:16.714Z,19.63
2019-01-18T18:05:39.439Z,21.00
2019-01-18T18:10:20.155Z,22.37
2019-01-18T18:15:00.973Z,19.90
2019-01-18T18:19:41.589Z,19.00
2019-01-18T18:24:25.109Z,21.40
2019-01-18T18:29:05.699Z,14.50
2019-01-18T18:33:50.527Z,16.30
2019-01-18T18:43:13.765Z,22.63
2019-01-18T18:47:54.674Z,20.43
2019-01-18T18:52:37.192Z,26.73
2019-01-18T18:56:52.108Z,24.70
2019-01-18T19:01:35.243Z,21.00
2019-01-18T19:06:15.927Z,18.47
2019-01-18T19:10:58.473Z,20.00
2019-01-18T19:15:39.117Z,19.43
2019-01-18T19:20:21.643Z,22.90
2019-01-18T19:25:04.282Z,22.13
2019-01-18T19:29:46.793Z,24.27
2019-01-18T19:34:10.864Z,24.80
2019-01-18T19:38:53.484Z,27.03
2019-01-18T19:43:34.181Z,31.90
2019-01-18T19:48:16.755Z,31.80
2019-01-18T19:52:57.452Z,29.10
2019-01-18T19:57:11.689Z,21.57
2019-01-18T20:01:34.357Z,25.20
2019-01-18T20:06:15.052Z,29.93
2019-01-18T20:11:00.489Z,22.30
2019-01-18T20:15:43.049Z,22.87
2019-01-18T20:20:23.854Z,22.57
2019-01-18T20:25:06.414Z,25.33
2019-01-18T20:29:47.427Z,40.37
2019-01-18T20:34:44.262Z,34.60
2019-01-18T20:39:14.813Z,38.80
2019-01-18T20:43:55.440Z,43.47
2019-01-18T20:48:37.131Z,29.67
2019-01-18T20:52:59.939Z,27.53
2019-01-18T20:57:22.763Z,23.93
2019-01-18T21:01:46.291Z,22.40
2019-01-18T21:06:29.141Z,22.07
2019-01-18T21:11:11.676Z,29.17
2019-01-18T21:15:34.313Z,25.73
2019-01-18T21:20:14.982Z,23.80
2019-01-18T21:24:57.748Z,22.37
2019-01-18T21:29:38.499Z,31.60
2019-01-18T21:34:01.247Z,30.60
2019-01-18T21:38:43.831Z,31.03
2019-01-18T21:43:30.355Z,24.83
2019-01-18T21:48:12.916Z,29.40
2019-01-18T21:52:55.432Z,26.77
2019-01-18T21:57:23.837Z,26.70
2019-01-18T22:01:49.975Z,28.43
2019-01-18T22:06:12.839Z,30.47
2019-01-18T22:10:55.520Z,30.27
2019-01-18T22:15:18.318Z,34.40
2019-01-18T22:20:01.363Z,33.23
2019-01-18T22:24:44.056Z,35.90
2019-01-18T22:29:06.795Z,32.13
2019-01-18T22:33:49.599Z,40.30
2019-01-18T22:38:32.528Z,37.53
2019-01-18T22:43:13.904Z,37.63
2019-01-18T22:47:38.965Z,41.67
2019-01-18T22:52:20.324Z,29.13
2019-01-18T22:56:37.375Z,27.07
2019-01-18T23:05:50.891Z,29.73
2019-01-18T23:10:14.329Z,29.13
2019-01-18T23:14:55.385Z,30.50
2019-01-18T23:19:37.022Z,33.07
2019-01-18T23:24:20.832Z,28.90
2019-01-18T23:33:32.029Z,42.13
2019-01-18T23:38:12.685Z,30.60
2019-01-18T23:42:55.270Z,28.27
2019-01-18T23:47:36.151Z,41.13
2019-01-18T23:52:18.676Z,51.17
2019-01-18T23:56:33.219Z,71.57
